sensor_id;sensor_type;location;lat;lon;timestamp;P1;durP1;ratioP1;P2;durP2;ratioP2
28174;SDS011;59417;44.788;10.334;2023-09-18T00:01:50;29.88;;;25.30;;
28174;SDS011;59417;44.788;10.334;2023-09-18T00:04:16;37.75;;;26.17;;
28174;SDS011;59417;44.788;10.334;2023-09-18T00:06:41;32.97;;;24.65;;
28174;SDS011;59417;44.788;10.334;2023-09-18T00:09:07;31.50;;;25.60;;
28174;SDS011;59417;44.788;10.334;2023-09-18T00:11:38;35.83;;;25.80;;
28174;SDS011;59417;44.788;10.334;2023-09-18T00:14:04;30.35;;;25.38;;
28174;SDS011;59417;44.788;10.334;2023-09-18T00:16:30;27.75;;;24.58;;
28174;SDS011;59417;44.788;10.334;2023-09-18T00:18:57;29.50;;;23.77;;
28174;SDS011;59417;44.788;10.334;2023-09-18T00:21:22;41.60;;;26.92;;
28174;SDS011;59417;44.788;10.334;2023-09-18T00:23:51;30.65;;;24.63;;
28174;SDS011;59417;44.788;10.334;2023-09-18T00:26:17;29.52;;;24.08;;
28174;SDS011;59417;44.788;10.334;2023-09-18T00:28:47;26.60;;;22.88;;
28174;SDS011;59417;44.788;10.334;2023-09-18T00:31:12;31.88;;;22.98;;
28174;SDS011;59417;44.788;10.334;2023-09-18T00:33:38;28.13;;;24.70;;
28174;SDS011;59417;44.788;10.334;2023-09-18T00:36:05;28.85;;;24.23;;
28174;SDS011;59417;44.788;10.334;2023-09-18T00:38:30;30.35;;;23.85;;
28174;SDS011;59417;44.788;10.334;2023-09-18T00:40:56;33.97;;;24.85;;
28174;SDS011;59417;44.788;10.334;2023-09-18T00:43:22;32.00;;;25.08;;
28174;SDS011;59417;44.788;10.334;2023-09-18T00:45:48;27.60;;;23.83;;
28174;SDS011;59417;44.788;10.334;2023-09-18T00:48:14;26.02;;;23.05;;
28174;SDS011;59417;44.788;10.334;2023-09-18T00:50:42;37.38;;;24.02;;
28174;SDS011;59417;44.788;10.334;2023-09-18T00:53:09;29.67;;;23.75;;
28174;SDS011;59417;44.788;10.334;2023-09-18T00:55:36;29.77;;;23.92;;
28174;SDS011;59417;44.788;10.334;2023-09-18T00:58:04;29.45;;;22.17;;
28174;SDS011;59417;44.788;10.334;2023-09-18T01:00:31;30.30;;;23.08;;
28174;SDS011;59417;44.788;10.334;2023-09-18T01:02:57;30.65;;;23.30;;
28174;SDS011;59417;44.788;10.334;2023-09-18T01:05:23;25.05;;;22.20;;
28174;SDS011;59417;44.788;10.334;2023-09-18T01:07:48;24.30;;;21.65;;
28174;SDS011;59417;44.788;10.334;2023-09-18T01:10:14;29.10;;;22.88;;
28174;SDS011;59417;44.788;10.334;2023-09-18T01:12:46;25.95;;;21.95;;
28174;SDS011;59417;44.788;10.334;2023-09-18T01:15:30;24.98;;;20.58;;
28174;SDS011;59417;44.788;10.334;2023-09-18T01:18:09;29.67;;;21.92;;
28174;SDS011;59417;44.788;10.334;2023-09-18T01:20:35;26.98;;;21.55;;
28174;SDS011;59417;44.788;10.334;2023-09-18T01:23:00;27.10;;;21.23;;
28174;SDS011;59417;44.788;10.334;2023-09-18T01:25:26;28.63;;;21.17;;
28174;SDS011;59417;44.788;10.334;2023-09-18T01:27:52;27.48;;;21.17;;
28174;SDS011;59417;44.788;10.334;2023-09-18T01:30:17;24.38;;;21.67;;
28174;SDS011;59417;44.788;10.334;2023-09-18T01:32:43;28.02;;;22.13;;
28174;SDS011;59417;44.788;10.334;2023-09-18T01:35:11;25.88;;;19.92;;
28174;SDS011;59417;44.788;10.334;2023-09-18T01:37:39;26.38;;;21.35;;
28174;SDS011;59417;44.788;10.334;2023-09-18T01:40:05;28.45;;;21.10;;
28174;SDS011;59417;44.788;10.334;2023-09-18T01:42:32;25.77;;;21.00;;
28174;SDS011;59417;44.788;10.334;2023-09-18T01:45:00;29.40;;;20.67;;
28174;SDS011;59417;44.788;10.334;2023-09-18T01:47:26;23.90;;;21.33;;
28174;SDS011;59417;44.788;10.334;2023-09-18T01:49:54;27.10;;;22.50;;
28174;SDS011;59417;44.788;10.334;2023-09-18T01:52:20;27.27;;;21.13;;
28174;SDS011;59417;44.788;10.334;2023-09-18T01:54:47;28.30;;;21.15;;
28174;SDS011;59417;44.788;10.334;2023-09-18T01:57:13;25.95;;;20.50;;
28174;SDS011;59417;44.788;10.334;2023-09-18T01:59:38;26.42;;;19.08;;
28174;SDS011;59417;44.788;10.334;2023-09-18T02:02:04;22.88;;;19.23;;
28174;SDS011;59417;44.788;10.334;2023-09-18T02:04:32;23.88;;;19.45;;
28174;SDS011;59417;44.788;10.334;2023-09-18T02:06:58;24.90;;;18.98;;
28174;SDS011;59417;44.788;10.334;2023-09-18T02:09:24;23.48;;;17.95;;
28174;SDS011;59417;44.788;10.334;2023-09-18T02:11:50;24.73;;;17.10;;
28174;SDS011;59417;44.788;10.334;2023-09-18T02:14:15;23.45;;;17.15;;
28174;SDS011;59417;44.788;10.334;2023-09-18T02:16:42;22.00;;;18.33;;
28174;SDS011;59417;44.788;10.334;2023-09-18T02:19:12;21.58;;;19.13;;
28174;SDS011;59417;44.788;10.334;2023-09-18T02:21:42;23.67;;;18.27;;
28174;SDS011;59417;44.788;10.334;2023-09-18T02:24:09;20.25;;;17.90;;
28174;SDS011;59417;44.788;10.334;2023-09-18T02:26:35;21.25;;;18.88;;
28174;SDS011;59417;44.788;10.334;2023-09-18T02:29:07;25.35;;;20.90;;
28174;SDS011;59417;44.788;10.334;2023-09-18T02:31:39;24.98;;;19.05;;
28174;SDS011;59417;44.788;10.334;2023-09-18T02:34:04;24.80;;;22.02;;
28174;SDS011;59417;44.788;10.334;2023-09-18T02:36:32;32.45;;;21.55;;
28174;SDS011;59417;44.788;10.334;2023-09-18T02:38:58;25.50;;;20.58;;
28174;SDS011;59417;44.788;10.334;2023-09-18T02:41:24;27.30;;;20.33;;
28174;SDS011;59417;44.788;10.334;2023-09-18T02:43:50;27.67;;;20.27;;
28174;SDS011;59417;44.788;10.334;2023-09-18T02:46:15;25.50;;;19.30;;
28174;SDS011;59417;44.788;10.334;2023-09-18T02:48:41;24.15;;;19.55;;
28174;SDS011;59417;44.788;10.334;2023-09-18T02:51:07;24.45;;;20.40;;
28174;SDS011;59417;44.788;10.334;2023-09-18T02:53:33;28.70;;;22.77;;
28174;SDS011;59417;44.788;10.334;2023-09-18T02:56:00;31.48;;;24.13;;
28174;SDS011;59417;44.788;10.334;2023-09-18T02:58:25;26.15;;;23.30;;
28174;SDS011;59417;44.788;10.334;2023-09-18T03:00:54;23.73;;;20.88;;
28174;SDS011;59417;44.788;10.334;2023-09-18T03:03:21;28.17;;;21.90;;
28174;SDS011;59417;44.788;10.334;2023-09-18T03:05:47;24.98;;;22.08;;
28174;SDS011;59417;44.788;10.334;2023-09-18T03:08:13;34.22;;;25.13;;
28174;SDS011;59417;44.788;10.334;2023-09-18T03:10:40;29.75;;;23.98;;
28174;SDS011;59417;44.788;10.334;2023-09-18T03:13:09;35.35;;;24.98;;
28174;SDS011;59417;44.788;10.334;2023-09-18T03:15:36;29.20;;;23.95;;
28174;SDS011;59417;44.788;10.334;2023-09-18T03:18:03;28.73;;;25.42;;
28174;SDS011;59417;44.788;10.334;2023-09-18T03:20:30;32.72;;;26.52;;
28174;SDS011;59417;44.788;10.334;2023-09-18T03:23:00;29.88;;;26.20;;
28174;SDS011;59417;44.788;10.334;2023-09-18T03:25:27;34.67;;;25.63;;
28174;SDS011;59417;44.788;10.334;2023-09-18T03:27:53;32.55;;;25.73;;
28174;SDS011;59417;44.788;10.334;2023-09-18T03:30:26;34.08;;;25.00;;
28174;SDS011;59417;44.788;10.334;2023-09-18T03:32:52;33.08;;;24.38;;
28174;SDS011;59417;44.788;10.334;2023-09-18T03:35:19;33.80;;;24.45;;
28174;SDS011;59417;44.788;10.334;2023-09-18T03:37:47;31.30;;;23.13;;
28174;SDS011;59417;44.788;10.334;2023-09-18T03:40:13;27.88;;;20.83;;
28174;SDS011;59417;44.788;10.334;2023-09-18T03:42:40;26.15;;;20.02;;
28174;SDS011;59417;44.788;10.334;2023-09-18T03:45:06;23.05;;;18.90;;
28174;SDS011;59417;44.788;10.334;2023-09-18T03:47:37;20.98;;;18.33;;
28174;SDS011;59417;44.788;10.334;2023-09-18T03:50:06;26.83;;;17.30;;
28174;SDS011;59417;44.788;10.334;2023-09-18T03:52:33;22.10;;;17.35;;
28174;SDS011;59417;44.788;10.334;2023-09-18T03:54:59;22.45;;;16.45;;
28174;SDS011;59417;44.788;10.334;2023-09-18T03:57:25;21.52;;;16.10;;
28174;SDS011;59417;44.788;10.334;2023-09-18T03:59:51;22.00;;;16.60;;
28174;SDS011;59417;44.788;10.334;2023-09-18T04:02:17;22.27;;;16.05;;
28174;SDS011;59417;44.788;10.334;2023-09-18T04:04:42;25.88;;;15.82;;
28174;SDS011;59417;44.788;10.334;2023-09-18T04:07:08;24.70;;;16.20;;
28174;SDS011;59417;44.788;10.334;2023-09-18T04:09:34;22.67;;;16.55;;
28174;SDS011;59417;44.788;10.334;2023-09-18T04:12:03;17.42;;;15.60;;
28174;SDS011;59417;44.788;10.334;2023-09-18T04:14:33;19.52;;;15.00;;
28174;SDS011;59417;44.788;10.334;2023-09-18T04:16:59;21.55;;;15.45;;
28174;SDS011;59417;44.788;10.334;2023-09-18T04:19:26;19.58;;;15.48;;
28174;SDS011;59417;44.788;10.334;2023-09-18T04:21:52;19.00;;;14.38;;
28174;SDS011;59417;44.788;10.334;2023-09-18T04:24:18;19.73;;;14.30;;
28174;SDS011;59417;44.788;10.334;2023-09-18T04:26:44;21.67;;;15.70;;
28174;SDS011;59417;44.788;10.334;2023-09-18T04:29:09;19.83;;;14.55;;
28174;SDS011;59417;44.788;10.334;2023-09-18T04:31:35;19.50;;;14.75;;
28174;SDS011;59417;44.788;10.334;2023-09-18T04:34:01;18.70;;;14.23;;
28174;SDS011;59417;44.788;10.334;2023-09-18T04:36:28;23.70;;;15.40;;
28174;SDS011;59417;44.788;10.334;2023-09-18T04:38:54;16.27;;;13.98;;
28174;SDS011;59417;44.788;10.334;2023-09-18T04:41:20;19.00;;;14.13;;
28174;SDS011;59417;44.788;10.334;2023-09-18T04:43:45;15.27;;;13.25;;
28174;SDS011;59417;44.788;10.334;2023-09-18T04:46:11;16.65;;;13.88;;
28174;SDS011;59417;44.788;10.334;2023-09-18T04:48:38;20.23;;;14.27;;
28174;SDS011;59417;44.788;10.334;2023-09-18T04:51:05;16.42;;;13.32;;
28174;SDS011;59417;44.788;10.334;2023-09-18T04:53:31;17.65;;;14.05;;
28174;SDS011;59417;44.788;10.334;2023-09-18T04:55:57;19.80;;;14.88;;
28174;SDS011;59417;44.788;10.334;2023-09-18T04:58:23;16.30;;;14.60;;
28174;SDS011;59417;44.788;10.334;2023-09-18T05:00:55;16.77;;;14.90;;
28174;SDS011;59417;44.788;10.334;2023-09-18T05:03:22;18.35;;;13.95;;
28174;SDS011;59417;44.788;10.334;2023-09-18T05:05:48;22.08;;;13.88;;
28174;SDS011;59417;44.788;10.334;2023-09-18T05:08:14;21.23;;;15.25;;
28174;SDS011;59417;44.788;10.334;2023-09-18T05:10:39;17.50;;;13.90;;
28174;SDS011;59417;44.788;10.334;2023-09-18T05:13:05;17.75;;;13.52;;
28174;SDS011;59417;44.788;10.334;2023-09-18T05:15:32;19.40;;;14.48;;
28174;SDS011;59417;44.788;10.334;2023-09-18T05:17:59;18.65;;;13.38;;
28174;SDS011;59417;44.788;10.334;2023-09-18T05:20:26;19.90;;;14.90;;
28174;SDS011;59417;44.788;10.334;2023-09-18T05:22:53;24.98;;;14.43;;
28174;SDS011;59417;44.788;10.334;2023-09-18T05:25:20;21.42;;;14.07;;
28174;SDS011;59417;44.788;10.334;2023-09-18T05:27:47;18.10;;;13.52;;
28174;SDS011;59417;44.788;10.334;2023-09-18T05:30:14;15.35;;;12.05;;
28174;SDS011;59417;44.788;10.334;2023-09-18T05:32:41;18.77;;;13.82;;
28174;SDS011;59417;44.788;10.334;2023-09-18T05:35:08;20.08;;;12.50;;
28174;SDS011;59417;44.788;10.334;2023-09-18T05:37:38;20.27;;;14.52;;
28174;SDS011;59417;44.788;10.334;2023-09-18T05:40:05;22.13;;;14.43;;
28174;SDS011;59417;44.788;10.334;2023-09-18T05:42:38;23.45;;;15.10;;
28174;SDS011;59417;44.788;10.334;2023-09-18T05:45:05;18.55;;;13.98;;
28174;SDS011;59417;44.788;10.334;2023-09-18T05:47:32;17.10;;;13.27;;
28174;SDS011;59417;44.788;10.334;2023-09-18T05:49:58;21.65;;;13.50;;
28174;SDS011;59417;44.788;10.334;2023-09-18T05:52:24;17.27;;;12.48;;
28174;SDS011;59417;44.788;10.334;2023-09-18T05:54:50;20.65;;;13.55;;
28174;SDS011;59417;44.788;10.334;2023-09-18T05:57:17;21.33;;;15.45;;
28174;SDS011;59417;44.788;10.334;2023-09-18T05:59:43;20.05;;;14.27;;
28174;SDS011;59417;44.788;10.334;2023-09-18T06:02:10;19.60;;;14.48;;
28174;SDS011;59417;44.788;10.334;2023-09-18T06:04:36;21.77;;;13.98;;
28174;SDS011;59417;44.788;10.334;2023-09-18T06:07:05;17.73;;;13.35;;
28174;SDS011;59417;44.788;10.334;2023-09-18T06:09:30;20.65;;;14.57;;
28174;SDS011;59417;44.788;10.334;2023-09-18T06:11:56;17.33;;;13.73;;
28174;SDS011;59417;44.788;10.334;2023-09-18T06:14:22;19.13;;;14.07;;
28174;SDS011;59417;44.788;10.334;2023-09-18T06:16:48;16.20;;;13.95;;
28174;SDS011;59417;44.788;10.334;2023-09-18T06:19:14;19.33;;;14.18;;
28174;SDS011;59417;44.788;10.334;2023-09-18T06:21:42;21.27;;;15.20;;
28174;SDS011;59417;44.788;10.334;2023-09-18T06:24:09;24.77;;;15.20;;
28174;SDS011;59417;44.788;10.334;2023-09-18T06:26:35;21.50;;;15.70;;
28174;SDS011;59417;44.788;10.334;2023-09-18T06:29:01;20.38;;;14.13;;
28174;SDS011;59417;44.788;10.334;2023-09-18T06:31:27;17.10;;;14.00;;
28174;SDS011;59417;44.788;10.334;2023-09-18T06:33:53;16.95;;;14.15;;
28174;SDS011;59417;44.788;10.334;2023-09-18T06:36:19;16.77;;;13.30;;
28174;SDS011;59417;44.788;10.334;2023-09-18T06:38:46;20.90;;;14.27;;
28174;SDS011;59417;44.788;10.334;2023-09-18T06:41:11;16.42;;;14.00;;
28174;SDS011;59417;44.788;10.334;2023-09-18T06:43:37;20.70;;;15.85;;
28174;SDS011;59417;44.788;10.334;2023-09-18T06:46:03;26.45;;;16.08;;
28174;SDS011;59417;44.788;10.334;2023-09-18T06:48:29;19.27;;;15.88;;
28174;SDS011;59417;44.788;10.334;2023-09-18T06:50:58;25.67;;;15.80;;
28174;SDS011;59417;44.788;10.334;2023-09-18T06:53:25;19.55;;;14.55;;
28174;SDS011;59417;44.788;10.334;2023-09-18T06:55:52;22.58;;;15.40;;
28174;SDS011;59417;44.788;10.334;2023-09-18T06:58:19;20.40;;;14.82;;
28174;SDS011;59417;44.788;10.334;2023-09-18T07:00:45;23.58;;;14.13;;
28174;SDS011;59417;44.788;10.334;2023-09-18T07:03:10;22.10;;;14.30;;
28174;SDS011;59417;44.788;10.334;2023-09-18T07:05:36;16.77;;;13.68;;
28174;SDS011;59417;44.788;10.334;2023-09-18T07:08:02;19.75;;;15.02;;
28174;SDS011;59417;44.788;10.334;2023-09-18T07:10:30;22.55;;;16.60;;
28174;SDS011;59417;44.788;10.334;2023-09-18T07:12:58;19.65;;;15.05;;
28174;SDS011;59417;44.788;10.334;2023-09-18T07:15:23;22.42;;;16.10;;
28174;SDS011;59417;44.788;10.334;2023-09-18T07:17:49;22.65;;;16.23;;
28174;SDS011;59417;44.788;10.334;2023-09-18T07:20:15;19.08;;;15.98;;
28174;SDS011;59417;44.788;10.334;2023-09-18T07:22:46;21.50;;;16.48;;
28174;SDS011;59417;44.788;10.334;2023-09-18T07:25:12;23.75;;;18.13;;
28174;SDS011;59417;44.788;10.334;2023-09-18T07:27:38;22.60;;;19.05;;
28174;SDS011;59417;44.788;10.334;2023-09-18T07:30:12;30.13;;;21.83;;
28174;SDS011;59417;44.788;10.334;2023-09-18T07:32:42;25.95;;;22.08;;
28174;SDS011;59417;44.788;10.334;2023-09-18T07:35:09;31.92;;;22.38;;
28174;SDS011;59417;44.788;10.334;2023-09-18T07:37:35;34.03;;;25.33;;
28174;SDS011;59417;44.788;10.334;2023-09-18T07:40:02;38.88;;;31.17;;
28174;SDS011;59417;44.788;10.334;2023-09-18T07:42:31;37.50;;;27.40;;
28174;SDS011;59417;44.788;10.334;2023-09-18T07:44:58;30.75;;;24.90;;
28174;SDS011;59417;44.788;10.334;2023-09-18T07:47:24;33.58;;;25.73;;
28174;SDS011;59417;44.788;10.334;2023-09-18T07:49:50;41.22;;;25.27;;
28174;SDS011;59417;44.788;10.334;2023-09-18T07:52:16;28.40;;;23.70;;
28174;SDS011;59417;44.788;10.334;2023-09-18T07:54:42;34.75;;;26.70;;
28174;SDS011;59417;44.788;10.334;2023-09-18T07:57:09;44.70;;;29.48;;
28174;SDS011;59417;44.788;10.334;2023-09-18T07:59:35;34.65;;;28.42;;
28174;SDS011;59417;44.788;10.334;2023-09-18T08:02:02;47.28;;;33.00;;
28174;SDS011;59417;44.788;10.334;2023-09-18T08:04:30;43.17;;;32.60;;
28174;SDS011;59417;44.788;10.334;2023-09-18T08:06:56;41.80;;;33.05;;
28174;SDS011;59417;44.788;10.334;2023-09-18T08:09:22;44.95;;;34.22;;
28174;SDS011;59417;44.788;10.334;2023-09-18T08:11:48;49.83;;;33.90;;
28174;SDS011;59417;44.788;10.334;2023-09-18T08:14:15;46.95;;;35.30;;
28174;SDS011;59417;44.788;10.334;2023-09-18T08:16:42;42.03;;;33.38;;
28174;SDS011;59417;44.788;10.334;2023-09-18T08:19:08;47.50;;;34.33;;
28174;SDS011;59417;44.788;10.334;2023-09-18T08:21:34;50.28;;;36.42;;
28174;SDS011;59417;44.788;10.334;2023-09-18T08:24:00;42.13;;;33.65;;
28174;SDS011;59417;44.788;10.334;2023-09-18T08:26:26;42.63;;;33.72;;
28174;SDS011;59417;44.788;10.334;2023-09-18T08:28:52;46.97;;;35.45;;
28174;SDS011;59417;44.788;10.334;2023-09-18T08:31:18;47.33;;;34.60;;
28174;SDS011;59417;44.788;10.334;2023-09-18T08:33:44;45.85;;;35.05;;
28174;SDS011;59417;44.788;10.334;2023-09-18T08:36:09;53.22;;;39.17;;
28174;SDS011;59417;44.788;10.334;2023-09-18T08:38:35;44.35;;;33.42;;
28174;SDS011;59417;44.788;10.334;2023-09-18T08:41:01;47.25;;;36.65;;
28174;SDS011;59417;44.788;10.334;2023-09-18T08:43:27;43.63;;;33.70;;
28174;SDS011;59417;44.788;10.334;2023-09-18T08:45:55;51.45;;;37.22;;
28174;SDS011;59417;44.788;10.334;2023-09-18T08:48:26;50.58;;;37.55;;
28174;SDS011;59417;44.788;10.334;2023-09-18T08:51:01;45.70;;;36.55;;
28174;SDS011;59417;44.788;10.334;2023-09-18T08:53:31;48.30;;;36.28;;
28174;SDS011;59417;44.788;10.334;2023-09-18T08:55:58;46.30;;;34.88;;
28174;SDS011;59417;44.788;10.334;2023-09-18T08:58:33;46.35;;;35.28;;
28174;SDS011;59417;44.788;10.334;2023-09-18T09:01:03;49.55;;;37.85;;
28174;SDS011;59417;44.788;10.334;2023-09-18T09:03:31;53.90;;;36.25;;
28174;SDS011;59417;44.788;10.334;2023-09-18T09:05:59;46.95;;;37.97;;
28174;SDS011;59417;44.788;10.334;2023-09-18T09:08:29;53.53;;;37.45;;
28174;SDS011;59417;44.788;10.334;2023-09-18T09:10:55;47.25;;;37.28;;
28174;SDS011;59417;44.788;10.334;2023-09-18T09:13:23;52.13;;;40.38;;
28174;SDS011;59417;44.788;10.334;2023-09-18T09:15:52;49.17;;;37.90;;
28174;SDS011;59417;44.788;10.334;2023-09-18T09:20:54;45.95;;;36.33;;
28174;SDS011;59417;44.788;10.334;2023-09-18T09:23:22;47.63;;;35.20;;
28174;SDS011;59417;44.788;10.334;2023-09-18T09:25:49;49.42;;;35.63;;
28174;SDS011;59417;44.788;10.334;2023-09-18T09:28:15;44.17;;;34.85;;
28174;SDS011;59417;44.788;10.334;2023-09-18T09:30:41;43.25;;;34.83;;
28174;SDS011;59417;44.788;10.334;2023-09-18T09:33:09;44.33;;;34.40;;
28174;SDS011;59417;44.788;10.334;2023-09-18T09:35:38;44.20;;;32.10;;
28174;SDS011;59417;44.788;10.334;2023-09-18T09:38:11;52.13;;;32.17;;
28174;SDS011;59417;44.788;10.334;2023-09-18T09:40:40;50.28;;;35.20;;
28174;SDS011;59417;44.788;10.334;2023-09-18T09:43:07;48.60;;;32.20;;
28174;SDS011;59417;44.788;10.334;2023-09-18T09:45:34;51.10;;;34.13;;
28174;SDS011;59417;44.788;10.334;2023-09-18T09:48:01;57.45;;;33.72;;
28174;SDS011;59417;44.788;10.334;2023-09-18T09:50:29;47.63;;;34.87;;
28174;SDS011;59417;44.788;10.334;2023-09-18T09:52:57;46.80;;;35.10;;
28174;SDS011;59417;44.788;10.334;2023-09-18T09:57:57;42.42;;;34.13;;
28174;SDS011;59417;44.788;10.334;2023-09-18T10:03:15;52.50;;;40.42;;
28174;SDS011;59417;44.788;10.334;2023-09-18T10:05:43;53.40;;;39.15;;
28174;SDS011;59417;44.788;10.334;2023-09-18T10:08:12;50.90;;;38.53;;
28174;SDS011;59417;44.788;10.334;2023-09-18T10:10:51;56.97;;;40.58;;
28174;SDS011;59417;44.788;10.334;2023-09-18T10:13:19;51.85;;;42.67;;
28174;SDS011;59417;44.788;10.334;2023-09-18T10:15:50;60.78;;;45.30;;
28174;SDS011;59417;44.788;10.334;2023-09-18T10:18:24;60.22;;;46.33;;
28174;SDS011;59417;44.788;10.334;2023-09-18T10:24:21;56.65;;;42.20;;
28174;SDS011;59417;44.788;10.334;2023-09-18T10:26:59;62.40;;;46.17;;
28174;SDS011;59417;44.788;10.334;2023-09-18T10:29:28;58.47;;;45.08;;
28174;SDS011;59417;44.788;10.334;2023-09-18T10:31:55;57.05;;;43.22;;
28174;SDS011;59417;44.788;10.334;2023-09-18T10:34:21;60.00;;;45.53;;
28174;SDS011;59417;44.788;10.334;2023-09-18T10:36:49;59.60;;;45.20;;
28174;SDS011;59417;44.788;10.334;2023-09-18T10:39:17;60.88;;;48.08;;
28174;SDS011;59417;44.788;10.334;2023-09-18T10:41:53;62.92;;;48.92;;
28174;SDS011;59417;44.788;10.334;2023-09-18T10:44:23;61.05;;;43.03;;
28174;SDS011;59417;44.788;10.334;2023-09-18T10:46:50;58.80;;;46.17;;
28174;SDS011;59417;44.788;10.334;2023-09-18T10:49:21;58.83;;;43.90;;
28174;SDS011;59417;44.788;10.334;2023-09-18T10:51:47;60.97;;;45.30;;
28174;SDS011;59417;44.788;10.334;2023-09-18T10:54:19;58.75;;;45.60;;
28174;SDS011;59417;44.788;10.334;2023-09-18T10:56:47;63.40;;;47.35;;
28174;SDS011;59417;44.788;10.334;2023-09-18T10:59:13;65.90;;;45.17;;
28174;SDS011;59417;44.788;10.334;2023-09-18T11:01:40;61.35;;;45.97;;
28174;SDS011;59417;44.788;10.334;2023-09-18T11:04:07;66.05;;;46.25;;
28174;SDS011;59417;44.788;10.334;2023-09-18T11:12:08;63.72;;;44.25;;
28174;SDS011;59417;44.788;10.334;2023-09-18T11:14:45;65.40;;;46.10;;
28174;SDS011;59417;44.788;10.334;2023-09-18T11:17:28;55.03;;;39.97;;
28174;SDS011;59417;44.788;10.334;2023-09-18T11:20:05;66.45;;;49.42;;
28174;SDS011;59417;44.788;10.334;2023-09-18T11:22:37;51.78;;;40.42;;
28174;SDS011;59417;44.788;10.334;2023-09-18T11:27:56;63.55;;;43.40;;
28174;SDS011;59417;44.788;10.334;2023-09-18T11:30:22;52.70;;;41.58;;
28174;SDS011;59417;44.788;10.334;2023-09-18T11:32:51;52.88;;;40.28;;
28174;SDS011;59417;44.788;10.334;2023-09-18T11:35:17;54.15;;;38.72;;
28174;SDS011;59417;44.788;10.334;2023-09-18T11:37:44;57.33;;;37.22;;
28174;SDS011;59417;44.788;10.334;2023-09-18T11:45:50;56.28;;;39.08;;
28174;SDS011;59417;44.788;10.334;2023-09-18T11:48:19;50.70;;;39.17;;
28174;SDS011;59417;44.788;10.334;2023-09-18T11:50:45;53.55;;;38.30;;
28174;SDS011;59417;44.788;10.334;2023-09-18T11:53:14;50.53;;;36.05;;
28174;SDS011;59417;44.788;10.334;2023-09-18T11:55:40;49.10;;;34.40;;
28174;SDS011;59417;44.788;10.334;2023-09-18T11:58:05;55.17;;;30.25;;
28174;SDS011;59417;44.788;10.334;2023-09-18T12:00:34;48.60;;;29.00;;
28174;SDS011;59417;44.788;10.334;2023-09-18T12:06:00;40.65;;;14.98;;
28174;SDS011;59417;44.788;10.334;2023-09-18T12:08:30;29.35;;;11.57;;
28174;SDS011;59417;44.788;10.334;2023-09-18T12:10:58;32.78;;;11.65;;
28174;SDS011;59417;44.788;10.334;2023-09-18T12:13:25;31.73;;;11.18;;
28174;SDS011;59417;44.788;10.334;2023-09-18T12:16:01;46.22;;;11.90;;
28174;SDS011;59417;44.788;10.334;2023-09-18T12:18:31;31.17;;;11.02;;
28174;SDS011;59417;44.788;10.334;2023-09-18T12:21:00;29.30;;;11.50;;
28174;SDS011;59417;44.788;10.334;2023-09-18T12:23:36;34.58;;;10.70;;
28174;SDS011;59417;44.788;10.334;2023-09-18T12:26:03;49.03;;;12.10;;
28174;SDS011;59417;44.788;10.334;2023-09-18T12:28:35;30.30;;;10.97;;
28174;SDS011;59417;44.788;10.334;2023-09-18T12:31:01;30.92;;;10.35;;
28174;SDS011;59417;44.788;10.334;2023-09-18T12:33:35;28.48;;;11.13;;
28174;SDS011;59417;44.788;10.334;2023-09-18T12:36:02;32.47;;;10.88;;
28174;SDS011;59417;44.788;10.334;2023-09-18T12:38:30;34.63;;;11.45;;
28174;SDS011;59417;44.788;10.334;2023-09-18T12:40:57;34.45;;;12.07;;
28174;SDS011;59417;44.788;10.334;2023-09-18T12:43:38;31.85;;;11.18;;
28174;SDS011;59417;44.788;10.334;2023-09-18T12:46:05;33.03;;;9.40;;
28174;SDS011;59417;44.788;10.334;2023-09-18T12:48:32;30.67;;;9.27;;
28174;SDS011;59417;44.788;10.334;2023-09-18T12:51:03;36.78;;;9.18;;
28174;SDS011;59417;44.788;10.334;2023-09-18T12:53:29;33.65;;;9.00;;
28174;SDS011;59417;44.788;10.334;2023-09-18T12:56:03;38.65;;;9.55;;
28174;SDS011;59417;44.788;10.334;2023-09-18T12:58:30;36.65;;;9.13;;
28174;SDS011;59417;44.788;10.334;2023-09-18T13:00:56;35.30;;;10.88;;
28174;SDS011;59417;44.788;10.334;2023-09-18T13:03:22;36.50;;;10.40;;
28174;SDS011;59417;44.788;10.334;2023-09-18T13:05:48;34.92;;;11.10;;
28174;SDS011;59417;44.788;10.334;2023-09-18T13:08:22;29.55;;;9.52;;
28174;SDS011;59417;44.788;10.334;2023-09-18T13:10:49;30.65;;;9.30;;
28174;SDS011;59417;44.788;10.334;2023-09-18T13:13:21;29.65;;;8.77;;
28174;SDS011;59417;44.788;10.334;2023-09-18T13:15:50;25.80;;;7.88;;
28174;SDS011;59417;44.788;10.334;2023-09-18T13:18:16;32.13;;;8.88;;
28174;SDS011;59417;44.788;10.334;2023-09-18T13:20:43;38.80;;;9.20;;
28174;SDS011;59417;44.788;10.334;2023-09-18T13:23:09;34.95;;;9.25;;
28174;SDS011;59417;44.788;10.334;2023-09-18T13:25:37;37.58;;;9.43;;
28174;SDS011;59417;44.788;10.334;2023-09-18T13:28:06;35.67;;;9.52;;
28174;SDS011;59417;44.788;10.334;2023-09-18T13:30:33;30.40;;;8.77;;
28174;SDS011;59417;44.788;10.334;2023-09-18T13:35:32;28.02;;;8.77;;
28174;SDS011;59417;44.788;10.334;2023-09-18T13:37:59;25.88;;;8.55;;
28174;SDS011;59417;44.788;10.334;2023-09-18T13:40:24;29.35;;;7.32;;
28174;SDS011;59417;44.788;10.334;2023-09-18T13:42:50;33.60;;;8.38;;
28174;SDS011;59417;44.788;10.334;2023-09-18T13:45:16;22.00;;;7.93;;
28174;SDS011;59417;44.788;10.334;2023-09-18T13:47:43;37.25;;;8.80;;
28174;SDS011;59417;44.788;10.334;2023-09-18T13:50:09;27.90;;;8.68;;
28174;SDS011;59417;44.788;10.334;2023-09-18T13:52:35;36.90;;;8.85;;
28174;SDS011;59417;44.788;10.334;2023-09-18T13:55:04;28.52;;;7.93;;
28174;SDS011;59417;44.788;10.334;2023-09-18T13:57:34;29.00;;;8.20;;
28174;SDS011;59417;44.788;10.334;2023-09-18T14:00:00;29.60;;;8.43;;
28174;SDS011;59417;44.788;10.334;2023-09-18T14:02:40;29.83;;;7.68;;
28174;SDS011;59417;44.788;10.334;2023-09-18T14:05:07;32.38;;;7.95;;
28174;SDS011;59417;44.788;10.334;2023-09-18T14:07:34;33.67;;;8.13;;
28174;SDS011;59417;44.788;10.334;2023-09-18T14:10:00;29.58;;;7.97;;
28174;SDS011;59417;44.788;10.334;2023-09-18T14:12:29;28.60;;;8.00;;
28174;SDS011;59417;44.788;10.334;2023-09-18T14:14:56;30.23;;;8.15;;
28174;SDS011;59417;44.788;10.334;2023-09-18T14:17:22;32.92;;;7.78;;
28174;SDS011;59417;44.788;10.334;2023-09-18T14:19:48;23.58;;;7.38;;
28174;SDS011;59417;44.788;10.334;2023-09-18T14:22:14;23.60;;;7.85;;
28174;SDS011;59417;44.788;10.334;2023-09-18T14:24:40;33.65;;;7.93;;
28174;SDS011;59417;44.788;10.334;2023-09-18T14:27:05;27.38;;;7.75;;
28174;SDS011;59417;44.788;10.334;2023-09-18T14:29:32;23.83;;;6.78;;
28174;SDS011;59417;44.788;10.334;2023-09-18T14:32:02;35.00;;;7.40;;
28174;SDS011;59417;44.788;10.334;2023-09-18T14:34:29;24.98;;;6.53;;
28174;SDS011;59417;44.788;10.334;2023-09-18T14:36:56;22.17;;;5.90;;
28174;SDS011;59417;44.788;10.334;2023-09-18T14:39:22;22.20;;;6.60;;
28174;SDS011;59417;44.788;10.334;2023-09-18T14:41:48;24.35;;;6.72;;
28174;SDS011;59417;44.788;10.334;2023-09-18T14:44:14;26.52;;;6.95;;